sensor_id;sensor_type;location;lat;lon;timestamp;P1;durP1;ratioP1;P2;durP2;ratioP2
75785;SDS011;64402;44.708;37.644;2024-02-21T00:02:01;15.50;;;6.78;;
75785;SDS011;64402;44.708;37.644;2024-02-21T00:04:27;16.38;;;6.53;;
75785;SDS011;64402;44.708;37.644;2024-02-21T00:06:54;13.63;;;6.18;;
75785;SDS011;64402;44.708;37.644;2024-02-21T00:09:20;15.35;;;6.95;;
75785;SDS011;64402;44.708;37.644;2024-02-21T00:11:46;15.48;;;6.70;;
75785;SDS011;64402;44.708;37.644;2024-02-21T00:14:13;14.48;;;6.78;;
75785;SDS011;64402;44.708;37.644;2024-02-21T00:16:39;15.07;;;7.20;;
75785;SDS011;64402;44.708;37.644;2024-02-21T00:19:06;17.27;;;8.50;;
75785;SDS011;64402;44.708;37.644;2024-02-21T00:21:32;18.35;;;7.75;;
75785;SDS011;64402;44.708;37.644;2024-02-21T00:23:59;19.98;;;8.63;;
75785;SDS011;64402;44.708;37.644;2024-02-21T00:26:25;21.52;;;9.35;;
75785;SDS011;64402;44.708;37.644;2024-02-21T00:28:52;23.08;;;9.50;;
75785;SDS011;64402;44.708;37.644;2024-02-21T00:31:18;21.63;;;9.20;;
75785;SDS011;64402;44.708;37.644;2024-02-21T00:33:45;20.75;;;8.95;;
75785;SDS011;64402;44.708;37.644;2024-02-21T00:36:11;23.85;;;8.93;;
75785;SDS011;64402;44.708;37.644;2024-02-21T00:38:38;23.00;;;8.80;;
75785;SDS011;64402;44.708;37.644;2024-02-21T00:41:04;18.50;;;8.98;;
75785;SDS011;64402;44.708;37.644;2024-02-21T00:43:30;20.83;;;8.73;;
75785;SDS011;64402;44.708;37.644;2024-02-21T00:45:57;21.10;;;8.30;;
75785;SDS011;64402;44.708;37.644;2024-02-21T00:48:23;21.98;;;8.45;;
75785;SDS011;64402;44.708;37.644;2024-02-21T00:50:50;22.70;;;8.60;;
75785;SDS011;64402;44.708;37.644;2024-02-21T00:53:16;16.15;;;7.43;;
75785;SDS011;64402;44.708;37.644;2024-02-21T00:55:43;17.95;;;7.90;;
75785;SDS011;64402;44.708;37.644;2024-02-21T00:58:09;17.35;;;8.07;;
75785;SDS011;64402;44.708;37.644;2024-02-21T01:00:36;18.02;;;8.20;;
75785;SDS011;64402;44.708;37.644;2024-02-21T01:03:02;18.35;;;8.63;;
75785;SDS011;64402;44.708;37.644;2024-02-21T01:05:30;18.77;;;9.35;;
75785;SDS011;64402;44.708;37.644;2024-02-21T01:07:59;22.05;;;9.60;;
75785;SDS011;64402;44.708;37.644;2024-02-21T01:10:26;21.55;;;9.05;;
75785;SDS011;64402;44.708;37.644;2024-02-21T01:12:52;18.77;;;8.60;;
75785;SDS011;64402;44.708;37.644;2024-02-21T01:15:19;24.13;;;9.05;;
75785;SDS011;64402;44.708;37.644;2024-02-21T01:17:45;20.45;;;8.88;;
75785;SDS011;64402;44.708;37.644;2024-02-21T01:20:12;19.45;;;8.57;;
75785;SDS011;64402;44.708;37.644;2024-02-21T01:22:38;18.65;;;8.70;;
75785;SDS011;64402;44.708;37.644;2024-02-21T01:25:05;24.50;;;9.32;;
75785;SDS011;64402;44.708;37.644;2024-02-21T01:27:32;16.60;;;8.18;;
75785;SDS011;64402;44.708;37.644;2024-02-21T01:29:58;21.30;;;8.52;;
75785;SDS011;64402;44.708;37.644;2024-02-21T01:32:25;19.58;;;8.80;;
75785;SDS011;64402;44.708;37.644;2024-02-21T01:34:51;17.30;;;8.30;;
75785;SDS011;64402;44.708;37.644;2024-02-21T01:37:18;17.75;;;8.27;;
75785;SDS011;64402;44.708;37.644;2024-02-21T01:39:44;19.70;;;7.88;;
75785;SDS011;64402;44.708;37.644;2024-02-21T01:42:10;23.35;;;9.20;;
75785;SDS011;64402;44.708;37.644;2024-02-21T01:44:37;20.63;;;7.97;;
75785;SDS011;64402;44.708;37.644;2024-02-21T01:47:04;19.75;;;8.63;;
75785;SDS011;64402;44.708;37.644;2024-02-21T01:49:30;21.33;;;8.82;;
75785;SDS011;64402;44.708;37.644;2024-02-21T01:51:57;23.08;;;8.93;;
75785;SDS011;64402;44.708;37.644;2024-02-21T01:54:24;20.40;;;9.40;;
75785;SDS011;64402;44.708;37.644;2024-02-21T01:56:54;21.20;;;8.88;;
75785;SDS011;64402;44.708;37.644;2024-02-21T01:59:21;18.85;;;8.98;;
75785;SDS011;64402;44.708;37.644;2024-02-21T02:01:48;24.75;;;8.63;;
75785;SDS011;64402;44.708;37.644;2024-02-21T02:04:15;24.17;;;8.75;;
75785;SDS011;64402;44.708;37.644;2024-02-21T02:06:42;17.95;;;8.57;;
75785;SDS011;64402;44.708;37.644;2024-02-21T02:09:09;18.15;;;7.93;;
75785;SDS011;64402;44.708;37.644;2024-02-21T02:11:35;22.83;;;8.82;;
75785;SDS011;64402;44.708;37.644;2024-02-21T02:14:02;23.63;;;9.38;;
75785;SDS011;64402;44.708;37.644;2024-02-21T02:16:29;23.33;;;9.25;;
75785;SDS011;64402;44.708;37.644;2024-02-21T02:18:55;23.48;;;8.60;;
75785;SDS011;64402;44.708;37.644;2024-02-21T02:21:26;24.17;;;9.07;;
75785;SDS011;64402;44.708;37.644;2024-02-21T02:23:55;20.77;;;9.48;;
75785;SDS011;64402;44.708;37.644;2024-02-21T02:26:22;20.70;;;8.88;;
75785;SDS011;64402;44.708;37.644;2024-02-21T02:28:49;35.88;;;16.40;;
75785;SDS011;64402;44.708;37.644;2024-02-21T02:31:15;39.35;;;16.90;;
75785;SDS011;64402;44.708;37.644;2024-02-21T02:33:45;23.33;;;9.98;;
75785;SDS011;64402;44.708;37.644;2024-02-21T02:36:11;21.75;;;10.07;;
75785;SDS011;64402;44.708;37.644;2024-02-21T02:38:38;20.80;;;9.30;;
75785;SDS011;64402;44.708;37.644;2024-02-21T02:41:04;24.25;;;9.93;;
75785;SDS011;64402;44.708;37.644;2024-02-21T02:43:31;22.67;;;9.48;;
75785;SDS011;64402;44.708;37.644;2024-02-21T02:45:57;19.85;;;8.57;;
75785;SDS011;64402;44.708;37.644;2024-02-21T02:48:24;21.65;;;9.30;;
75785;SDS011;64402;44.708;37.644;2024-02-21T02:50:50;26.52;;;10.23;;
75785;SDS011;64402;44.708;37.644;2024-02-21T02:53:17;27.75;;;11.02;;
75785;SDS011;64402;44.708;37.644;2024-02-21T02:55:43;25.98;;;10.68;;
75785;SDS011;64402;44.708;37.644;2024-02-21T02:58:09;21.92;;;9.82;;
75785;SDS011;64402;44.708;37.644;2024-02-21T03:00:36;25.92;;;10.60;;
75785;SDS011;64402;44.708;37.644;2024-02-21T03:03:02;21.23;;;9.25;;
75785;SDS011;64402;44.708;37.644;2024-02-21T03:05:34;21.35;;;9.27;;
75785;SDS011;64402;44.708;37.644;2024-02-21T03:08:00;22.75;;;8.88;;
75785;SDS011;64402;44.708;37.644;2024-02-21T03:10:27;22.02;;;9.95;;
75785;SDS011;64402;44.708;37.644;2024-02-21T03:12:53;23.17;;;9.45;;
75785;SDS011;64402;44.708;37.644;2024-02-21T03:15:20;26.10;;;10.40;;
75785;SDS011;64402;44.708;37.644;2024-02-21T03:17:46;23.67;;;10.02;;
75785;SDS011;64402;44.708;37.644;2024-02-21T03:20:13;27.23;;;10.43;;
75785;SDS011;64402;44.708;37.644;2024-02-21T03:22:40;28.75;;;11.77;;
75785;SDS011;64402;44.708;37.644;2024-02-21T03:25:07;33.45;;;11.65;;
75785;SDS011;64402;44.708;37.644;2024-02-21T03:27:35;25.20;;;11.07;;
75785;SDS011;64402;44.708;37.644;2024-02-21T03:30:01;26.80;;;12.32;;
75785;SDS011;64402;44.708;37.644;2024-02-21T03:32:28;29.95;;;12.05;;
75785;SDS011;64402;44.708;37.644;2024-02-21T03:34:54;29.58;;;11.68;;
75785;SDS011;64402;44.708;37.644;2024-02-21T03:37:21;28.30;;;12.23;;
75785;SDS011;64402;44.708;37.644;2024-02-21T03:39:47;28.17;;;11.43;;
75785;SDS011;64402;44.708;37.644;2024-02-21T03:42:14;28.33;;;11.38;;
75785;SDS011;64402;44.708;37.644;2024-02-21T03:44:40;26.23;;;11.50;;
75785;SDS011;64402;44.708;37.644;2024-02-21T03:47:07;29.50;;;12.10;;
75785;SDS011;64402;44.708;37.644;2024-02-21T03:49:36;26.67;;;11.88;;
75785;SDS011;64402;44.708;37.644;2024-02-21T03:52:03;25.45;;;11.30;;
75785;SDS011;64402;44.708;37.644;2024-02-21T03:54:29;28.95;;;12.68;;
75785;SDS011;64402;44.708;37.644;2024-02-21T03:56:56;29.42;;;12.05;;
75785;SDS011;64402;44.708;37.644;2024-02-21T03:59:22;25.90;;;11.50;;
75785;SDS011;64402;44.708;37.644;2024-02-21T04:01:52;30.25;;;12.43;;
75785;SDS011;64402;44.708;37.644;2024-02-21T04:04:19;29.23;;;12.20;;
75785;SDS011;64402;44.708;37.644;2024-02-21T04:06:46;30.23;;;12.63;;
75785;SDS011;64402;44.708;37.644;2024-02-21T04:09:14;32.75;;;13.02;;
75785;SDS011;64402;44.708;37.644;2024-02-21T04:11:40;32.05;;;12.75;;
75785;SDS011;64402;44.708;37.644;2024-02-21T04:14:07;30.13;;;12.20;;
75785;SDS011;64402;44.708;37.644;2024-02-21T04:16:34;31.80;;;12.93;;
75785;SDS011;64402;44.708;37.644;2024-02-21T04:19:00;33.72;;;12.27;;
75785;SDS011;64402;44.708;37.644;2024-02-21T04:21:27;29.10;;;12.48;;
75785;SDS011;64402;44.708;37.644;2024-02-21T04:23:54;33.70;;;13.40;;
75785;SDS011;64402;44.708;37.644;2024-02-21T04:26:21;29.23;;;12.55;;
75785;SDS011;64402;44.708;37.644;2024-02-21T04:28:47;33.00;;;11.73;;
75785;SDS011;64402;44.708;37.644;2024-02-21T04:31:14;32.60;;;13.13;;
75785;SDS011;64402;44.708;37.644;2024-02-21T04:33:40;39.67;;;13.90;;
75785;SDS011;64402;44.708;37.644;2024-02-21T04:36:06;39.80;;;15.10;;
75785;SDS011;64402;44.708;37.644;2024-02-21T04:38:33;37.60;;;13.73;;
75785;SDS011;64402;44.708;37.644;2024-02-21T04:40:59;36.10;;;14.13;;
75785;SDS011;64402;44.708;37.644;2024-02-21T04:43:26;33.88;;;13.95;;
75785;SDS011;64402;44.708;37.644;2024-02-21T04:45:53;35.53;;;14.52;;
75785;SDS011;64402;44.708;37.644;2024-02-21T04:48:19;32.90;;;13.85;;
75785;SDS011;64402;44.708;37.644;2024-02-21T04:50:46;34.10;;;14.25;;
75785;SDS011;64402;44.708;37.644;2024-02-21T04:53:16;43.05;;;14.02;;
75785;SDS011;64402;44.708;37.644;2024-02-21T04:55:43;35.40;;;13.80;;
75785;SDS011;64402;44.708;37.644;2024-02-21T04:58:09;39.00;;;13.60;;
75785;SDS011;64402;44.708;37.644;2024-02-21T05:00:36;33.30;;;14.57;;
75785;SDS011;64402;44.708;37.644;2024-02-21T05:03:02;33.67;;;13.82;;
75785;SDS011;64402;44.708;37.644;2024-02-21T05:05:29;35.13;;;13.38;;
75785;SDS011;64402;44.708;37.644;2024-02-21T05:07:55;33.70;;;13.45;;
75785;SDS011;64402;44.708;37.644;2024-02-21T05:10:22;29.70;;;12.20;;
75785;SDS011;64402;44.708;37.644;2024-02-21T05:12:48;34.80;;;13.70;;
75785;SDS011;64402;44.708;37.644;2024-02-21T05:15:15;33.47;;;13.27;;
75785;SDS011;64402;44.708;37.644;2024-02-21T05:17:42;28.70;;;12.90;;
75785;SDS011;64402;44.708;37.644;2024-02-21T05:20:09;28.40;;;12.10;;
75785;SDS011;64402;44.708;37.644;2024-02-21T05:22:36;25.75;;;11.50;;
75785;SDS011;64402;44.708;37.644;2024-02-21T05:25:02;33.50;;;12.32;;
75785;SDS011;64402;44.708;37.644;2024-02-21T05:27:29;28.45;;;11.95;;
75785;SDS011;64402;44.708;37.644;2024-02-21T05:29:55;29.08;;;11.45;;
75785;SDS011;64402;44.708;37.644;2024-02-21T05:32:22;24.55;;;10.65;;
75785;SDS011;64402;44.708;37.644;2024-02-21T05:34:48;33.38;;;11.60;;
75785;SDS011;64402;44.708;37.644;2024-02-21T05:37:15;40.40;;;14.25;;
75785;SDS011;64402;44.708;37.644;2024-02-21T05:39:42;37.55;;;14.38;;
75785;SDS011;64402;44.708;37.644;2024-02-21T05:42:08;36.72;;;13.85;;
75785;SDS011;64402;44.708;37.644;2024-02-21T05:44:35;31.35;;;14.73;;
75785;SDS011;64402;44.708;37.644;2024-02-21T05:47:01;33.90;;;13.68;;
75785;SDS011;64402;44.708;37.644;2024-02-21T05:49:28;37.70;;;13.48;;
75785;SDS011;64402;44.708;37.644;2024-02-21T05:51:54;32.78;;;12.65;;
75785;SDS011;64402;44.708;37.644;2024-02-21T05:54:21;30.20;;;12.93;;
75785;SDS011;64402;44.708;37.644;2024-02-21T05:56:47;27.67;;;10.13;;
75785;SDS011;64402;44.708;37.644;2024-02-21T05:59:14;28.88;;;9.68;;
75785;SDS011;64402;44.708;37.644;2024-02-21T06:01:40;23.00;;;9.70;;
75785;SDS011;64402;44.708;37.644;2024-02-21T06:04:07;24.52;;;9.45;;
75785;SDS011;64402;44.708;37.644;2024-02-21T06:06:34;20.55;;;9.18;;
75785;SDS011;64402;44.708;37.644;2024-02-21T06:09:00;29.05;;;10.55;;
75785;SDS011;64402;44.708;37.644;2024-02-21T06:13:55;25.60;;;8.05;;
75785;SDS011;64402;44.708;37.644;2024-02-21T06:16:21;20.90;;;8.70;;
75785;SDS011;64402;44.708;37.644;2024-02-21T06:18:48;19.77;;;9.23;;
75785;SDS011;64402;44.708;37.644;2024-02-21T06:21:14;25.02;;;9.82;;
75785;SDS011;64402;44.708;37.644;2024-02-21T06:23:42;22.80;;;9.30;;
75785;SDS011;64402;44.708;37.644;2024-02-21T06:26:09;22.25;;;8.80;;
75785;SDS011;64402;44.708;37.644;2024-02-21T06:28:35;18.52;;;8.82;;
75785;SDS011;64402;44.708;37.644;2024-02-21T06:31:02;18.65;;;8.90;;
75785;SDS011;64402;44.708;37.644;2024-02-21T06:33:28;20.88;;;7.90;;
75785;SDS011;64402;44.708;37.644;2024-02-21T06:35:55;18.85;;;8.48;;
75785;SDS011;64402;44.708;37.644;2024-02-21T06:38:22;19.40;;;7.68;;
75785;SDS011;64402;44.708;37.644;2024-02-21T06:40:49;19.33;;;7.68;;
75785;SDS011;64402;44.708;37.644;2024-02-21T06:43:18;15.10;;;6.70;;
75785;SDS011;64402;44.708;37.644;2024-02-21T06:45:45;16.63;;;6.57;;
75785;SDS011;64402;44.708;37.644;2024-02-21T06:48:19;12.73;;;6.10;;
75785;SDS011;64402;44.708;37.644;2024-02-21T06:50:45;14.27;;;6.20;;
75785;SDS011;64402;44.708;37.644;2024-02-21T06:53:12;12.23;;;5.82;;
75785;SDS011;64402;44.708;37.644;2024-02-21T06:55:38;17.80;;;5.60;;
75785;SDS011;64402;44.708;37.644;2024-02-21T06:58:05;12.55;;;5.90;;
75785;SDS011;64402;44.708;37.644;2024-02-21T07:00:34;11.68;;;5.90;;
75785;SDS011;64402;44.708;37.644;2024-02-21T07:03:00;15.43;;;6.80;;
75785;SDS011;64402;44.708;37.644;2024-02-21T07:05:28;20.27;;;8.00;;
75785;SDS011;64402;44.708;37.644;2024-02-21T07:07:55;13.65;;;6.97;;
75785;SDS011;64402;44.708;37.644;2024-02-21T07:10:21;13.02;;;6.38;;
75785;SDS011;64402;44.708;37.644;2024-02-21T07:12:47;14.48;;;7.15;;
75785;SDS011;64402;44.708;37.644;2024-02-21T07:15:14;14.65;;;7.03;;
75785;SDS011;64402;44.708;37.644;2024-02-21T07:17:41;21.05;;;7.05;;
75785;SDS011;64402;44.708;37.644;2024-02-21T07:20:07;17.02;;;7.07;;
75785;SDS011;64402;44.708;37.644;2024-02-21T07:22:34;13.40;;;6.28;;
75785;SDS011;64402;44.708;37.644;2024-02-21T07:25:01;14.20;;;7.00;;
75785;SDS011;64402;44.708;37.644;2024-02-21T07:27:28;12.65;;;6.55;;
75785;SDS011;64402;44.708;37.644;2024-02-21T07:29:57;17.60;;;6.18;;
75785;SDS011;64402;44.708;37.644;2024-02-21T07:32:23;14.05;;;5.95;;
75785;SDS011;64402;44.708;37.644;2024-02-21T07:34:50;16.40;;;6.20;;
75785;SDS011;64402;44.708;37.644;2024-02-21T07:37:16;17.08;;;6.00;;
75785;SDS011;64402;44.708;37.644;2024-02-21T07:39:43;10.70;;;4.93;;
75785;SDS011;64402;44.708;37.644;2024-02-21T07:42:09;13.23;;;5.57;;
75785;SDS011;64402;44.708;37.644;2024-02-21T07:44:36;17.10;;;6.35;;
75785;SDS011;64402;44.708;37.644;2024-02-21T07:47:02;14.40;;;6.03;;
75785;SDS011;64402;44.708;37.644;2024-02-21T07:49:29;15.65;;;6.35;;
75785;SDS011;64402;44.708;37.644;2024-02-21T07:51:55;14.73;;;7.10;;
75785;SDS011;64402;44.708;37.644;2024-02-21T07:54:22;11.52;;;5.75;;
75785;SDS011;64402;44.708;37.644;2024-02-21T07:56:48;12.23;;;5.63;;
75785;SDS011;64402;44.708;37.644;2024-02-21T07:59:15;13.57;;;6.50;;
75785;SDS011;64402;44.708;37.644;2024-02-21T08:01:41;15.23;;;5.57;;
75785;SDS011;64402;44.708;37.644;2024-02-21T08:04:08;9.23;;;5.28;;
75785;SDS011;64402;44.708;37.644;2024-02-21T08:06:35;10.27;;;4.88;;
75785;SDS011;64402;44.708;37.644;2024-02-21T08:09:01;17.83;;;5.07;;
75785;SDS011;64402;44.708;37.644;2024-02-21T08:11:28;9.85;;;4.72;;
75785;SDS011;64402;44.708;37.644;2024-02-21T08:13:54;9.50;;;5.07;;
75785;SDS011;64402;44.708;37.644;2024-02-21T08:16:21;9.20;;;5.13;;
75785;SDS011;64402;44.708;37.644;2024-02-21T08:18:47;18.00;;;6.00;;
75785;SDS011;64402;44.708;37.644;2024-02-21T08:21:14;10.32;;;4.80;;
75785;SDS011;64402;44.708;37.644;2024-02-21T08:23:40;12.20;;;4.90;;
75785;SDS011;64402;44.708;37.644;2024-02-21T08:26:07;10.85;;;3.97;;
75785;SDS011;64402;44.708;37.644;2024-02-21T08:28:33;9.32;;;4.07;;
75785;SDS011;64402;44.708;37.644;2024-02-21T08:31:00;9.68;;;4.45;;
75785;SDS011;64402;44.708;37.644;2024-02-21T08:33:27;11.63;;;5.03;;
75785;SDS011;64402;44.708;37.644;2024-02-21T08:35:55;8.13;;;3.50;;
75785;SDS011;64402;44.708;37.644;2024-02-21T08:38:22;8.77;;;3.78;;
75785;SDS011;64402;44.708;37.644;2024-02-21T08:40:49;7.82;;;3.78;;
75785;SDS011;64402;44.708;37.644;2024-02-21T08:43:15;6.95;;;3.10;;
75785;SDS011;64402;44.708;37.644;2024-02-21T08:45:42;8.00;;;3.83;;
75785;SDS011;64402;44.708;37.644;2024-02-21T08:48:08;8.93;;;3.78;;
75785;SDS011;64402;44.708;37.644;2024-02-21T08:50:35;10.07;;;4.03;;
75785;SDS011;64402;44.708;37.644;2024-02-21T08:55:29;9.35;;;4.53;;
75785;SDS011;64402;44.708;37.644;2024-02-21T08:57:55;14.43;;;4.10;;
75785;SDS011;64402;44.708;37.644;2024-02-21T09:00:22;9.95;;;4.25;;
75785;SDS011;64402;44.708;37.644;2024-02-21T09:02:52;12.68;;;4.97;;
75785;SDS011;64402;44.708;37.644;2024-02-21T09:05:21;10.82;;;4.32;;
75785;SDS011;64402;44.708;37.644;2024-02-21T09:07:48;10.88;;;4.60;;
75785;SDS011;64402;44.708;37.644;2024-02-21T09:10:15;11.15;;;4.32;;
75785;SDS011;64402;44.708;37.644;2024-02-21T09:12:41;7.82;;;3.67;;
75785;SDS011;64402;44.708;37.644;2024-02-21T09:15:08;9.80;;;4.28;;
75785;SDS011;64402;44.708;37.644;2024-02-21T09:17:35;8.93;;;3.47;;
75785;SDS011;64402;44.708;37.644;2024-02-21T09:20:01;6.95;;;3.90;;
75785;SDS011;64402;44.708;37.644;2024-02-21T09:22:29;8.32;;;4.15;;
75785;SDS011;64402;44.708;37.644;2024-02-21T09:24:57;8.38;;;3.75;;
75785;SDS011;64402;44.708;37.644;2024-02-21T09:27:23;9.40;;;3.53;;
75785;SDS011;64402;44.708;37.644;2024-02-21T09:29:50;11.25;;;4.13;;
75785;SDS011;64402;44.708;37.644;2024-02-21T09:32:17;14.10;;;3.80;;
75785;SDS011;64402;44.708;37.644;2024-02-21T09:34:45;7.80;;;3.67;;
75785;SDS011;64402;44.708;37.644;2024-02-21T09:37:11;8.93;;;3.78;;
75785;SDS011;64402;44.708;37.644;2024-02-21T09:39:37;6.72;;;3.63;;
75785;SDS011;64402;44.708;37.644;2024-02-21T09:42:05;8.73;;;3.50;;
75785;SDS011;64402;44.708;37.644;2024-02-21T09:44:38;6.85;;;3.25;;
75785;SDS011;64402;44.708;37.644;2024-02-21T09:49:48;6.50;;;3.10;;
75785;SDS011;64402;44.708;37.644;2024-02-21T09:52:15;7.70;;;3.20;;
75785;SDS011;64402;44.708;37.644;2024-02-21T09:54:43;9.15;;;2.60;;
75785;SDS011;64402;44.708;37.644;2024-02-21T09:57:10;7.38;;;2.70;;
75785;SDS011;64402;44.708;37.644;2024-02-21T09:59:37;5.68;;;2.63;;
75785;SDS011;64402;44.708;37.644;2024-02-21T10:02:05;5.93;;;2.80;;
75785;SDS011;64402;44.708;37.644;2024-02-21T10:04:32;8.88;;;3.00;;
75785;SDS011;64402;44.708;37.644;2024-02-21T10:09:26;5.65;;;2.08;;
75785;SDS011;64402;44.708;37.644;2024-02-21T10:11:54;4.60;;;1.95;;
75785;SDS011;64402;44.708;37.644;2024-02-21T10:14:21;5.40;;;2.20;;
75785;SDS011;64402;44.708;37.644;2024-02-21T10:16:48;6.97;;;1.95;;
75785;SDS011;64402;44.708;37.644;2024-02-21T10:19:22;4.68;;;1.95;;
75785;SDS011;64402;44.708;37.644;2024-02-21T10:24:30;4.25;;;1.60;;
75785;SDS011;64402;44.708;37.644;2024-02-21T10:27:07;8.90;;;1.88;;
75785;SDS011;64402;44.708;37.644;2024-02-21T10:29:34;4.22;;;1.63;;
75785;SDS011;64402;44.708;37.644;2024-02-21T10:34:40;8.48;;;1.70;;
75785;SDS011;64402;44.708;37.644;2024-02-21T10:37:08;7.30;;;1.85;;
75785;SDS011;64402;44.708;37.644;2024-02-21T10:39:39;11.02;;;2.08;;
75785;SDS011;64402;44.708;37.644;2024-02-21T10:42:06;5.88;;;1.65;;
75785;SDS011;64402;44.708;37.644;2024-02-21T10:44:34;4.55;;;1.55;;
75785;SDS011;64402;44.708;37.644;2024-02-21T10:47:04;3.58;;;1.40;;
75785;SDS011;64402;44.708;37.644;2024-02-21T10:49:38;4.13;;;1.65;;
75785;SDS011;64402;44.708;37.644;2024-02-21T10:52:10;4.03;;;1.60;;
75785;SDS011;64402;44.708;37.644;2024-02-21T10:54:45;4.50;;;1.63;;
75785;SDS011;64402;44.708;37.644;2024-02-21T10:57:19;5.80;;;1.60;;
75785;SDS011;64402;44.708;37.644;2024-02-21T10:59:48;4.32;;;1.60;;
75785;SDS011;64402;44.708;37.644;2024-02-21T11:02:15;6.45;;;1.90;;
75785;SDS011;64402;44.708;37.644;2024-02-21T11:04:41;12.73;;;2.00;;
75785;SDS011;64402;44.708;37.644;2024-02-21T11:07:09;5.80;;;1.70;;
75785;SDS011;64402;44.708;37.644;2024-02-21T11:09:36;4.63;;;1.60;;
75785;SDS011;64402;44.708;37.644;2024-02-21T11:12:04;7.95;;;1.60;;
75785;SDS011;64402;44.708;37.644;2024-02-21T11:14:34;4.25;;;1.50;;
75785;SDS011;64402;44.708;37.644;2024-02-21T11:17:14;7.18;;;1.70;;
75785;SDS011;64402;44.708;37.644;2024-02-21T11:19:45;7.00;;;1.80;;
75785;SDS011;64402;44.708;37.644;2024-02-21T11:22:18;5.63;;;2.00;;
75785;SDS011;64402;44.708;37.644;2024-02-21T11:24:45;11.48;;;2.20;;
75785;SDS011;64402;44.708;37.644;2024-02-21T11:27:13;4.13;;;1.40;;
75785;SDS011;64402;44.708;37.644;2024-02-21T11:32:10;5.30;;;1.73;;
75785;SDS011;64402;44.708;37.644;2024-02-21T11:34:41;4.50;;;1.60;;
75785;SDS011;64402;44.708;37.644;2024-02-21T11:37:18;5.47;;;2.42;;
75785;SDS011;64402;44.708;37.644;2024-02-21T11:39:44;4.60;;;1.65;;
75785;SDS011;64402;44.708;37.644;2024-02-21T11:42:11;7.68;;;1.85;;
75785;SDS011;64402;44.708;37.644;2024-02-21T11:44:39;5.55;;;1.98;;
75785;SDS011;64402;44.708;37.644;2024-02-21T11:47:09;4.40;;;1.50;;
75785;SDS011;64402;44.708;37.644;2024-02-21T11:49:44;3.72;;;1.38;;
75785;SDS011;64402;44.708;37.644;2024-02-21T11:52:12;7.05;;;1.35;;
75785;SDS011;64402;44.708;37.644;2024-02-21T11:54:41;3.92;;;1.50;;
75785;SDS011;64402;44.708;37.644;2024-02-21T11:57:08;5.65;;;1.63;;
75785;SDS011;64402;44.708;37.644;2024-02-21T11:59:35;9.32;;;1.67;;
75785;SDS011;64402;44.708;37.644;2024-02-21T12:02:01;4.72;;;1.70;;
75785;SDS011;64402;44.708;37.644;2024-02-21T12:04:29;5.57;;;1.35;;
75785;SDS011;64402;44.708;37.644;2024-02-21T12:06:59;5.13;;;1.95;;
75785;SDS011;64402;44.708;37.644;2024-02-21T12:09:25;3.92;;;1.52;;
75785;SDS011;64402;44.708;37.644;2024-02-21T12:11:59;6.72;;;1.50;;
75785;SDS011;64402;44.708;37.644;2024-02-21T12:14:27;4.97;;;1.67;;
75785;SDS011;64402;44.708;37.644;2024-02-21T12:16:55;6.97;;;1.95;;
75785;SDS011;64402;44.708;37.644;2024-02-21T12:19:22;6.47;;;2.10;;
75785;SDS011;64402;44.708;37.644;2024-02-21T12:21:48;9.77;;;2.58;;
75785;SDS011;64402;44.708;37.644;2024-02-21T12:24:25;5.15;;;2.00;;
75785;SDS011;64402;44.708;37.644;2024-02-21T12:29:20;4.43;;;1.50;;
75785;SDS011;64402;44.708;37.644;2024-02-21T12:36:41;4.60;;;1.50;;
75785;SDS011;64402;44.708;37.644;2024-02-21T12:39:09;4.78;;;2.00;;
75785;SDS011;64402;44.708;37.644;2024-02-21T12:41:37;5.43;;;1.70;;
75785;SDS011;64402;44.708;37.644;2024-02-21T12:44:04;3.65;;;1.58;;
75785;SDS011;64402;44.708;37.644;2024-02-21T12:46:37;3.60;;;1.30;;
75785;SDS011;64402;44.708;37.644;2024-02-21T12:49:05;3.42;;;1.40;;
75785;SDS011;64402;44.708;37.644;2024-02-21T12:51:35;4.68;;;1.90;;
75785;SDS011;64402;44.708;37.644;2024-02-21T12:54:02;13.68;;;2.03;;
75785;SDS011;64402;44.708;37.644;2024-02-21T12:56:31;5.00;;;1.42;;
75785;SDS011;64402;44.708;37.644;2024-02-21T12:58:57;6.07;;;1.60;;
75785;SDS011;64402;44.708;37.644;2024-02-21T13:01:24;6.82;;;2.63;;
75785;SDS011;64402;44.708;37.644;2024-02-21T13:03:54;6.28;;;2.17;;
75785;SDS011;64402;44.708;37.644;2024-02-21T13:06:21;13.50;;;2.13;;
75785;SDS011;64402;44.708;37.644;2024-02-21T13:08:50;17.52;;;2.30;;
75785;SDS011;64402;44.708;37.644;2024-02-21T13:11:17;6.47;;;2.03;;
75785;SDS011;64402;44.708;37.644;2024-02-21T13:13:44;6.65;;;1.90;;
75785;SDS011;64402;44.708;37.644;2024-02-21T13:16:11;4.93;;;1.75;;
75785;SDS011;64402;44.708;37.644;2024-02-21T13:18:37;4.93;;;1.92;;
75785;SDS011;64402;44.708;37.644;2024-02-21T13:21:05;8.68;;;2.00;;
75785;SDS011;64402;44.708;37.644;2024-02-21T13:23:32;5.72;;;1.70;;
75785;SDS011;64402;44.708;37.644;2024-02-21T13:25:59;3.55;;;1.23;;
75785;SDS011;64402;44.708;37.644;2024-02-21T13:28:28;4.45;;;1.30;;
75785;SDS011;64402;44.708;37.644;2024-02-21T13:33:21;7.28;;;1.60;;
75785;SDS011;64402;44.708;37.644;2024-02-21T13:35:48;9.25;;;1.60;;
75785;SDS011;64402;44.708;37.644;2024-02-21T13:38:14;2.58;;;1.13;;
75785;SDS011;64402;44.708;37.644;2024-02-21T13:40:41;3.78;;;1.30;;
75785;SDS011;64402;44.708;37.644;2024-02-21T13:43:08;4.82;;;1.45;;
75785;SDS011;64402;44.708;37.644;2024-02-21T13:45:34;9.98;;;3.92;;
75785;SDS011;64402;44.708;37.644;2024-02-21T13:48:01;10.07;;;4.22;;
75785;SDS011;64402;44.708;37.644;2024-02-21T13:50:30;9.48;;;4.72;;
75785;SDS011;64402;44.708;37.644;2024-02-21T13:52:57;11.25;;;4.35;;
75785;SDS011;64402;44.708;37.644;2024-02-21T13:55:24;10.40;;;4.68;;
75785;SDS011;64402;44.708;37.644;2024-02-21T13:57:54;11.07;;;4.53;;
75785;SDS011;64402;44.708;37.644;2024-02-21T14:00:20;15.70;;;4.28;;
75785;SDS011;64402;44.708;37.644;2024-02-21T14:02:47;14.75;;;4.53;;
75785;SDS011;64402;44.708;37.644;2024-02-21T14:05:13;10.30;;;4.75;;
75785;SDS011;64402;44.708;37.644;2024-02-21T14:07:40;10.02;;;4.40;;
75785;SDS011;64402;44.708;37.644;2024-02-21T14:10:07;18.42;;;4.18;;
75785;SDS011;64402;44.708;37.644;2024-02-21T14:12:35;18.98;;;4.60;;
75785;SDS011;64402;44.708;37.644;2024-02-21T14:15:01;11.93;;;5.10;;
75785;SDS011;64402;44.708;37.644;2024-02-21T14:17:28;13.38;;;4.68;;
75785;SDS011;64402;44.708;37.644;2024-02-21T14:19:54;12.27;;;4.88;;
75785;SDS011;64402;44.708;37.644;2024-02-21T14:22:21;24.98;;;4.85;;
75785;SDS011;64402;44.708;37.644;2024-02-21T14:24:47;14.48;;;4.90;;
75785;SDS011;64402;44.708;37.644;2024-02-21T14:27:14;21.83;;;7.18;;
75785;SDS011;64402;44.708;37.644;2024-02-21T14:29:40;24.08;;;12.70;;
75785;SDS011;64402;44.708;37.644;2024-02-21T14:32:07;22.25;;;7.30;;
75785;SDS011;64402;44.708;37.644;2024-02-21T14:34:35;24.00;;;12.02;;
75785;SDS011;64402;44.708;37.644;2024-02-21T14:37:02;25.98;;;11.40;;
75785;SDS011;64402;44.708;37.644;2024-02-21T14:41:56;34.42;;;19.73;;
75785;SDS011;64402;44.708;37.644;2024-02-21T14:46:50;17.02;;;6.55;;
75785;SDS011;64402;44.708;37.644;2024-02-21T14:49:17;20.42;;;5.88;;
75785;SDS011;64402;44.708;37.644;2024-02-21T14:54:15;13.57;;;4.80;;
75785;SDS011;64402;44.708;37.644;2024-02-21T14:56:41;20.13;;;6.93;;
75785;SDS011;64402;44.708;37.644;2024-02-21T14:59:09;20.05;;;7.10;;